ADDS METAR Data INFO
IDs: Format: Raw Decoded Include TAF

Data at: 2134 UTC 15 Dec 2017

METAR for:TKPK (St Kitts/Bradshaw In, --, AT)
Text:TKPK 152100Z 06012KT 9999 VCSH FEW018 26/22 Q1016
Temperature: 26.0°C ( 79°F)
Dewpoint: 22.0°C ( 72°F) [RH = 79%]
Pressure (altimeter):30.00 inches Hg (1016.0 mb)
Winds:from the ENE (60 degrees) at 14 MPH (12 knots; 6.2 m/s)
Visibility:6 or more sm (10+ km)
Ceiling:at least 12,000 feet AGL
Clouds: few clouds at 1800 feet AGL
Weather:VCSH (showers in vicinity)